Time;durP1;ratioP1;P1;durP2;ratioP2;P2;SDS_P1;SDS_P2;PMS_P1;PMS_P2;Temp;Humidity;BMP_temperature;BMP_pressure;BME280_temperature;BME280_humidity;BME280_pressure;Samples;Min_cycle;Max_cycle;Signal;HPM_P1;HPM_P2
2022/07/04 00:02:23;;;;;;;1.03;0.93;;;21.10;99.90;;;;;;5089450;28;20742;-55
2022/07/04 00:04:50;;;;;;;0.80;0.80;;;21.00;99.90;;;;;;5091483;28;20201;-55
2022/07/04 00:07:17;;;;;;;1.93;0.97;;;21.00;99.90;;;;;;5092717;28;20249;-54
2022/07/04 00:09:45;;;;;;;1.90;0.97;;;20.90;99.90;;;;;;5093273;28;20646;-54
2022/07/04 00:12:12;;;;;;;0.87;0.87;;;20.80;99.90;;;;;;5072549;28;20201;-55
2022/07/04 00:14:40;;;;;;;1.23;0.83;;;20.70;99.90;;;;;;5088709;28;20220;-55
2022/07/04 00:17:07;;;;;;;1.00;1.00;;;20.70;99.90;;;;;;5092152;28;20247;-54
2022/07/04 00:19:34;;;;;;;0.83;0.83;;;20.60;99.90;;;;;;5090903;28;20266;-54
2022/07/04 00:22:01;;;;;;;0.70;0.70;;;20.50;99.90;;;;;;5092564;28;20193;-54
2022/07/04 00:24:28;;;;;;;1.10;1.10;;;20.40;99.90;;;;;;5092229;28;20242;-54
2022/07/04 00:26:57;;;;;;;1.47;1.00;;;20.40;99.90;;;;;;5092005;28;20228;-55
2022/07/04 00:29:24;;;;;;;1.70;0.80;;;20.40;99.90;;;;;;5092855;28;20273;-54
2022/07/04 00:31:51;;;;;;;0.70;0.70;;;20.30;99.90;;;;;;5091307;28;20775;-55
2022/07/04 00:34:17;;;;;;;0.90;0.80;;;20.20;99.90;;;;;;5092020;28;20307;-55
2022/07/04 00:36:44;;;;;;;1.33;0.80;;;20.30;99.90;;;;;;5089550;28;20201;-55
2022/07/04 00:39:11;;;;;;;0.80;0.80;;;20.30;99.90;;;;;;5111216;22;20703;-48
2022/07/04 00:41:38;;;;;;;0.90;0.83;;;20.20;99.90;;;;;;5072243;28;20255;-48
2022/07/04 00:44:08;;;;;;;0.70;0.70;;;20.20;99.90;;;;;;5069587;28;20254;-48
2022/07/04 00:46:35;;;;;;;1.27;0.60;;;20.20;99.90;;;;;;5068881;28;20205;-48
2022/07/04 00:49:05;;;;;;;0.70;0.70;;;20.20;99.90;;;;;;5072765;28;20256;-48
2022/07/04 00:51:33;;;;;;;0.70;0.70;;;20.20;99.90;;;;;;5072152;28;20563;-48
2022/07/04 00:54:00;;;;;;;0.60;0.60;;;20.10;99.90;;;;;;5049143;28;20222;-48
2022/07/04 00:56:27;;;;;;;0.77;0.77;;;20.20;99.90;;;;;;5057581;28;20198;-47
2022/07/04 00:58:54;;;;;;;0.87;0.70;;;20.20;99.90;;;;;;5062316;28;20201;-48
2022/07/04 01:01:23;;;;;;;1.00;0.83;;;20.10;99.90;;;;;;5062802;28;20272;-48
2022/07/04 01:03:50;;;;;;;1.03;1.03;;;20.10;99.90;;;;;;5058203;28;20206;-48
2022/07/04 01:06:19;;;;;;;1.33;0.77;;;20.00;99.90;;;;;;5050124;28;20250;-48
2022/07/04 01:08:47;;;;;;;0.67;0.67;;;20.00;99.90;;;;;;5060541;28;20725;-47
2022/07/04 01:11:14;;;;;;;1.27;0.87;;;20.00;99.90;;;;;;5057169;28;20197;-48
2022/07/04 01:13:44;;;;;;;0.53;0.53;;;19.90;99.90;;;;;;5060805;28;20270;-47
2022/07/04 01:16:12;;;;;;;0.43;0.43;;;19.90;99.90;;;;;;5052728;28;20216;-47
2022/07/04 01:18:41;;;;;;;0.50;0.50;;;20.00;99.90;;;;;;5056725;28;20202;-48
2022/07/04 01:21:10;;;;;;;1.33;0.70;;;19.90;99.90;;;;;;5049788;28;20256;-48
2022/07/04 01:23:38;;;;;;;0.90;0.70;;;20.00;99.90;;;;;;5060415;28;20656;-47
2022/07/04 01:26:06;;;;;;;1.00;0.70;;;20.00;99.90;;;;;;5063193;28;20201;-48
2022/07/04 01:28:33;;;;;;;0.53;0.53;;;19.90;99.90;;;;;;5066275;28;20292;-47
2022/07/04 01:31:00;;;;;;;2.87;0.70;;;19.90;99.90;;;;;;5063605;28;20213;-48
2022/07/04 01:33:27;;;;;;;1.60;0.90;;;19.90;99.90;;;;;;5071469;28;20266;-48
2022/07/04 01:35:54;;;;;;;1.07;0.70;;;19.90;99.90;;;;;;5053578;28;20198;-48
2022/07/04 01:38:23;;;;;;;0.80;0.80;;;19.90;99.90;;;;;;5059209;28;20202;-48
2022/07/04 01:40:50;;;;;;;0.50;0.50;;;19.80;99.90;;;;;;5060064;28;20257;-48
2022/07/04 01:43:17;;;;;;;0.60;0.60;;;19.80;99.90;;;;;;5052850;28;20255;-48
2022/07/04 01:45:44;;;;;;;0.80;0.80;;;19.80;99.90;;;;;;5050793;28;20255;-48
2022/07/04 01:48:12;;;;;;;1.53;0.70;;;19.70;99.90;;;;;;5059287;28;20233;-48
2022/07/04 01:50:40;;;;;;;0.50;0.50;;;19.70;99.90;;;;;;5060332;28;20234;-48
2022/07/04 01:53:07;;;;;;;0.50;0.50;;;19.80;99.90;;;;;;5048211;28;20205;-48
2022/07/04 01:55:36;;;;;;;4.63;0.60;;;19.80;99.90;;;;;;5058152;28;20283;-48
2022/07/04 01:58:03;;;;;;;0.60;0.60;;;19.80;99.90;;;;;;5066283;28;20197;-48
2022/07/04 02:03:19;;;;;;;0.80;0.63;;;19.80;99.90;;;;;;5045486;28;20186;-47
2022/07/04 02:05:46;;;;;;;0.60;0.60;;;19.80;99.90;;;;;;5050220;28;20202;-48
2022/07/04 02:08:13;;;;;;;0.60;0.60;;;19.80;99.90;;;;;;5059960;28;20275;-47
2022/07/04 02:10:41;;;;;;;0.60;0.60;;;19.90;99.90;;;;;;5050445;28;20218;-48
2022/07/04 02:13:07;;;;;;;0.60;0.60;;;19.80;99.90;;;;;;5054983;28;20197;-48
2022/07/04 02:15:36;;;;;;;0.60;0.60;;;19.70;99.90;;;;;;5049702;28;20275;-48
2022/07/04 02:18:04;;;;;;;0.73;0.70;;;19.80;99.90;;;;;;5059196;28;20205;-48
2022/07/04 02:20:31;;;;;;;0.50;0.50;;;19.80;99.90;;;;;;5066287;28;20216;-48
2022/07/04 02:22:58;;;;;;;2.63;0.50;;;19.90;99.90;;;;;;5070763;28;20201;-48
2022/07/04 02:25:26;;;;;;;0.97;0.97;;;20.00;99.90;;;;;;5059741;28;20293;-47
2022/07/04 02:27:54;;;;;;;1.17;0.60;;;20.00;99.90;;;;;;5048972;28;20205;-48
2022/07/04 02:30:21;;;;;;;2.20;1.03;;;20.00;99.90;;;;;;5056346;28;20257;-48
2022/07/04 02:32:48;;;;;;;0.67;0.60;;;20.00;99.90;;;;;;5057886;28;20205;-48
2022/07/04 02:35:15;;;;;;;0.60;0.60;;;20.00;99.90;;;;;;5048542;28;20214;-48
2022/07/04 02:37:42;;;;;;;0.67;0.67;;;19.90;99.90;;;;;;5059169;28;20205;-48
2022/07/04 02:40:10;;;;;;;0.70;0.70;;;20.00;99.90;;;;;;5071278;28;20236;-48
2022/07/04 02:42:37;;;;;;;0.70;0.70;;;19.90;99.90;;;;;;5060150;28;20828;-48
2022/07/04 02:45:07;;;;;;;2.30;0.80;;;19.90;99.90;;;;;;5050219;28;20257;-48
2022/07/04 02:47:35;;;;;;;1.13;0.70;;;20.00;99.90;;;;;;5066536;28;20816;-48
2022/07/04 02:50:03;;;;;;;0.70;0.70;;;20.00;99.90;;;;;;5063871;28;20598;-47
2022/07/04 02:52:30;;;;;;;0.60;0.60;;;20.00;99.90;;;;;;5055210;28;20211;-47
2022/07/04 02:54:57;;;;;;;0.80;0.80;;;20.00;99.90;;;;;;5049449;28;20776;-48
2022/07/04 02:57:24;;;;;;;0.80;0.80;;;20.10;99.90;;;;;;5051310;28;20206;-48
2022/07/04 02:59:51;;;;;;;0.73;0.73;;;20.10;99.90;;;;;;5050490;28;20268;-48
2022/07/04 03:02:20;;;;;;;1.20;1.10;;;20.10;99.90;;;;;;5049395;28;20198;-48
2022/07/04 03:04:47;;;;;;;0.60;0.60;;;20.00;99.90;;;;;;5049150;28;20627;-47
2022/07/04 03:07:14;;;;;;;1.03;0.70;;;20.00;99.90;;;;;;5051333;28;20208;-48
2022/07/04 03:09:41;;;;;;;0.80;0.80;;;20.10;99.90;;;;;;5051186;28;20280;-48
2022/07/04 03:12:08;;;;;;;6.50;0.80;;;20.10;99.90;;;;;;5050480;28;20267;-48
2022/07/04 03:14:35;;;;;;;0.90;0.90;;;20.20;99.90;;;;;;5051679;28;20230;-47
2022/07/04 03:17:02;;;;;;;0.63;0.63;;;20.20;99.90;;;;;;5048612;28;20202;-48
2022/07/04 03:19:31;;;;;;;1.70;0.60;;;20.20;99.90;;;;;;5047518;28;20275;-47
2022/07/04 03:21:58;;;;;;;0.67;0.67;;;20.20;99.90;;;;;;5050649;28;20206;-48
2022/07/04 03:24:25;;;;;;;0.50;0.50;;;20.20;99.90;;;;;;5061544;28;20588;-48
2022/07/04 03:26:51;;;;;;;0.70;0.70;;;20.30;99.90;;;;;;5063692;28;20236;-48
2022/07/04 03:29:18;;;;;;;1.00;1.00;;;20.30;99.90;;;;;;5072131;28;20296;-48
2022/07/04 03:31:45;;;;;;;0.70;0.70;;;20.20;99.90;;;;;;5065311;28;20197;-48
2022/07/04 03:34:12;;;;;;;2.57;0.80;;;20.30;99.90;;;;;;5059704;28;20549;-48
2022/07/04 03:36:40;;;;;;;1.63;0.93;;;20.20;99.90;;;;;;5058291;28;20737;-48
2022/07/04 03:39:07;;;;;;;1.63;0.80;;;20.20;99.90;;;;;;5054318;28;20272;-48
2022/07/04 03:41:36;;;;;;;0.60;0.60;;;20.10;99.90;;;;;;5059922;28;20201;-48
2022/07/04 03:44:03;;;;;;;2.20;1.00;;;20.00;99.90;;;;;;5053979;28;20198;-48
2022/07/04 03:46:30;;;;;;;1.30;0.80;;;20.00;99.90;;;;;;5052457;28;20315;-48
2022/07/04 03:48:57;;;;;;;0.70;0.70;;;20.00;99.90;;;;;;5062987;28;20240;-48
2022/07/04 03:51:24;;;;;;;0.93;0.80;;;20.10;99.90;;;;;;5059105;28;20283;-47
2022/07/04 03:53:52;;;;;;;1.53;0.80;;;20.00;99.90;;;;;;5052051;28;20248;-48
2022/07/04 03:56:19;;;;;;;1.00;1.00;;;20.00;99.90;;;;;;5053768;28;20221;-47
2022/07/04 03:58:48;;;;;;;0.97;0.80;;;20.10;99.90;;;;;;5053922;28;20267;-47
2022/07/04 04:01:16;;;;;;;2.50;0.80;;;20.00;99.90;;;;;;5059796;28;20209;-48
2022/07/04 04:06:28;;;;;;;1.00;1.00;;;19.80;99.90;;;;;;5051178;28;20239;-48
2022/07/04 04:08:57;;;;;;;1.27;0.80;;;19.70;99.90;;;;;;5051856;28;20259;-48
2022/07/04 04:11:24;;;;;;;1.00;1.00;;;19.70;99.90;;;;;;5058405;28;20213;-47
2022/07/04 04:13:51;;;;;;;1.30;1.20;;;19.70;99.90;;;;;;5073592;28;20728;-48
2022/07/04 04:16:18;;;;;;;1.17;1.17;;;19.70;99.90;;;;;;5073786;28;20217;-48
2022/07/04 04:18:45;;;;;;;1.40;1.30;;;19.80;99.90;;;;;;5063364;28;20597;-48
2022/07/04 04:21:12;;;;;;;1.97;1.00;;;19.80;99.90;;;;;;5064599;28;20296;-48
2022/07/04 04:23:39;;;;;;;1.63;0.80;;;19.80;99.90;;;;;;5064727;28;20204;-47
2022/07/04 04:26:07;;;;;;;1.00;1.00;;;19.80;99.90;;;;;;5054057;28;20345;-48
2022/07/04 04:28:34;;;;;;;0.97;0.97;;;19.80;99.90;;;;;;5040719;28;20804;-47
2022/07/04 04:31:01;;;;;;;2.37;1.13;;;19.80;99.90;;;;;;5035021;28;20214;-47
2022/07/04 04:33:28;;;;;;;1.33;1.33;;;19.70;99.90;;;;;;5050032;28;20205;-49
2022/07/04 04:35:55;;;;;;;2.13;1.37;;;19.60;99.90;;;;;;5051330;28;20214;-47
2022/07/04 04:38:22;;;;;;;2.00;1.30;;;19.40;99.90;;;;;;5048202;28;20195;-47
2022/07/04 04:40:49;;;;;;;2.90;2.20;;;19.10;99.90;;;;;;5041008;28;20772;-47
2022/07/04 04:43:17;;;;;;;1.50;1.40;;;19.00;99.90;;;;;;5038868;28;20237;-47
2022/07/04 04:45:44;;;;;;;1.27;1.17;;;19.00;99.90;;;;;;5044704;28;20681;-47
2022/07/04 04:48:12;;;;;;;1.73;1.63;;;19.00;99.90;;;;;;5045157;28;20673;-47
2022/07/04 04:50:38;;;;;;;1.20;1.20;;;18.90;99.90;;;;;;5039929;28;20245;-47
2022/07/04 04:53:06;;;;;;;1.77;1.50;;;18.90;99.90;;;;;;5032262;28;20206;-47
2022/07/04 04:55:33;;;;;;;3.23;1.53;;;19.00;99.90;;;;;;5037256;28;20273;-47
2022/07/04 04:58:00;;;;;;;1.63;1.53;;;18.90;99.90;;;;;;5035850;28;20286;-47
2022/07/04 05:00:28;;;;;;;2.00;1.90;;;19.00;99.90;;;;;;5042995;28;20730;-47
2022/07/04 05:02:55;;;;;;;2.43;1.70;;;19.00;99.90;;;;;;5048138;28;20252;-47
2022/07/04 05:05:22;;;;;;;2.00;1.77;;;19.10;99.90;;;;;;5038256;28;20280;-47
2022/07/04 05:07:49;;;;;;;2.83;1.50;;;19.10;99.90;;;;;;5043112;28;20657;-47
2022/07/04 05:10:16;;;;;;;4.37;2.00;;;19.20;99.90;;;;;;5033253;28;20286;-47
2022/07/04 05:12:43;;;;;;;1.50;1.50;;;19.20;99.90;;;;;;5043031;28;20888;-47
2022/07/04 05:15:11;;;;;;;2.73;2.40;;;19.20;99.90;;;;;;5042080;28;20695;-47
2022/07/04 05:17:39;;;;;;;2.40;2.30;;;19.20;99.90;;;;;;5051088;28;20201;-47
2022/07/04 05:20:08;;;;;;;4.63;2.20;;;19.30;99.90;;;;;;5054503;28;20304;-47
2022/07/04 05:22:35;;;;;;;1.80;1.70;;;19.20;99.90;;;;;;5056220;28;20200;-47
2022/07/04 05:25:02;;;;;;;5.70;2.33;;;19.20;99.90;;;;;;5041474;28;20194;-48
2022/07/04 05:27:30;;;;;;;3.00;2.20;;;19.20;99.90;;;;;;5031669;28;20248;-46
2022/07/04 05:29:57;;;;;;;5.17;2.67;;;19.10;99.90;;;;;;5047279;28;20218;-47
2022/07/04 05:32:28;;;;;;;1.83;1.73;;;19.10;99.90;;;;;;5049986;28;20576;-47
2022/07/04 05:34:57;;;;;;;4.40;2.70;;;19.00;99.90;;;;;;5048148;28;20222;-47
2022/07/04 05:37:24;;;;;;;3.30;2.17;;;19.10;99.90;;;;;;5046239;28;20683;-47
2022/07/04 05:39:51;;;;;;;2.30;2.10;;;19.00;99.90;;;;;;5050712;28;20230;-47
2022/07/04 05:42:19;;;;;;;2.57;2.33;;;19.00;99.90;;;;;;5054716;28;20205;-48
2022/07/04 05:44:46;;;;;;;4.33;3.77;;;19.00;99.90;;;;;;5045914;28;20370;-47
2022/07/04 05:47:13;;;;;;;4.33;2.90;;;19.00;99.90;;;;;;5049659;28;20201;-48
2022/07/04 05:49:39;;;;;;;3.53;2.40;;;19.00;99.90;;;;;;5057019;28;20221;-47
2022/07/04 05:52:08;;;;;;;4.53;1.67;;;18.90;99.90;;;;;;5047706;28;20225;-47
2022/07/04 05:54:35;;;;;;;3.60;3.10;;;18.90;99.90;;;;;;5050939;28;20220;-47
2022/07/04 05:57:02;;;;;;;3.10;2.70;;;18.90;99.90;;;;;;5063711;28;20214;-49
2022/07/04 05:59:30;;;;;;;2.60;2.40;;;18.90;99.90;;;;;;5057749;28;20279;-47
2022/07/04 06:01:57;;;;;;;2.07;1.97;;;18.90;99.90;;;;;;5046281;28;20193;-47
2022/07/04 06:04:24;;;;;;;3.00;2.27;;;18.90;99.90;;;;;;5031662;28;20265;-47
2022/07/04 06:06:51;;;;;;;3.30;2.53;;;18.90;99.90;;;;;;5042818;28;20251;-47
2022/07/04 06:09:19;;;;;;;2.77;2.57;;;18.90;99.90;;;;;;5048137;28;20660;-47
2022/07/04 06:11:46;;;;;;;2.80;2.43;;;19.00;99.90;;;;;;5044435;28;20262;-47
2022/07/04 06:14:13;;;;;;;4.83;2.47;;;19.10;99.90;;;;;;5043582;28;20737;-46
2022/07/04 06:16:40;;;;;;;3.47;2.50;;;19.00;99.90;;;;;;5044866;28;20210;-47
2022/07/04 06:19:08;;;;;;;2.33;2.23;;;19.00;99.90;;;;;;5068474;28;20221;-47
2022/07/04 06:21:35;;;;;;;4.60;2.57;;;18.90;99.90;;;;;;5032420;28;20198;-47
2022/07/04 06:24:05;;;;;;;2.80;2.10;;;18.90;99.90;;;;;;5036319;28;20260;-47
2022/07/04 06:26:34;;;;;;;5.13;2.50;;;18.80;99.90;;;;;;5043077;28;20285;-47
2022/07/04 06:29:01;;;;;;;4.50;2.10;;;18.90;99.90;;;;;;5042570;28;20194;-47
2022/07/04 06:31:28;;;;;;;1.57;1.47;;;18.90;99.90;;;;;;5039279;28;20202;-47
2022/07/04 06:36:39;;;;;;;2.17;1.93;;;18.80;99.90;;;;;;5043639;28;20634;-47
2022/07/04 06:39:06;;;;;;;2.27;2.07;;;18.80;99.90;;;;;;5057985;28;20289;-46
2022/07/04 06:41:34;;;;;;;2.97;2.45;;;18.80;99.90;;;;;;5033705;28;20460;-47
2022/07/04 06:44:01;;;;;;;2.30;1.87;;;18.80;99.90;;;;;;5037900;28;20602;-46
2022/07/04 06:46:29;;;;;;;1.97;1.80;;;18.70;99.90;;;;;;5040891;28;20209;-46
2022/07/04 06:48:56;;;;;;;2.00;1.90;;;18.70;99.90;;;;;;5040984;28;20213;-47
2022/07/04 06:51:23;;;;;;;1.90;1.80;;;18.70;99.90;;;;;;5029800;28;20203;-47
2022/07/04 06:53:50;;;;;;;3.07;2.00;;;18.80;99.90;;;;;;5031537;28;20495;-47
2022/07/04 06:56:17;;;;;;;2.70;2.50;;;18.80;99.90;;;;;;5030428;28;20264;-47
2022/07/04 06:58:46;;;;;;;3.10;2.53;;;18.90;99.90;;;;;;5054836;22;20209;-54
2022/07/04 07:01:13;;;;;;;3.07;2.50;;;19.00;99.90;;;;;;5063728;28;20266;-54
2022/07/04 07:03:40;;;;;;;2.00;1.90;;;19.00;99.90;;;;;;5068486;28;20250;-54
2022/07/04 07:06:07;;;;;;;2.60;2.50;;;19.00;99.90;;;;;;5072520;28;20201;-54
2022/07/04 07:08:34;;;;;;;2.10;2.00;;;19.00;99.90;;;;;;5074101;28;20203;-54
2022/07/04 07:11:12;;;;;;;2.20;1.97;;;19.00;99.90;;;;;;5072676;28;20261;-54
2022/07/04 07:13:40;;;;;;;2.27;2.10;;;19.00;99.90;;;;;;5050545;28;20201;-54
2022/07/04 07:16:08;;;;;;;2.73;2.00;;;19.00;99.90;;;;;;5052569;28;20268;-55
2022/07/04 07:18:35;;;;;;;2.10;1.90;;;19.00;99.90;;;;;;5056332;28;20264;-54
2022/07/04 07:21:03;;;;;;;3.90;2.00;;;19.00;99.90;;;;;;5051314;28;20198;-54
2022/07/04 07:23:30;;;;;;;2.07;2.07;;;19.20;99.90;;;;;;5052638;28;20213;-54
2022/07/04 07:25:57;;;;;;;3.90;2.63;;;19.20;99.90;;;;;;5053863;28;20209;-54
2022/07/04 07:28:25;;;;;;;2.70;2.50;;;19.30;99.90;;;;;;5052012;28;20209;-54
2022/07/04 07:30:52;;;;;;;3.43;3.13;;;19.30;99.90;;;;;;5052075;28;20245;-54
2022/07/04 07:33:20;;;;;;;2.50;1.97;;;19.40;99.90;;;;;;5050107;28;20202;-54
2022/07/04 07:35:47;;;;;;;2.43;2.00;;;19.70;99.90;;;;;;5052285;28;20221;-55
2022/07/04 07:38:14;;;;;;;2.20;2.00;;;20.10;99.90;;;;;;5052467;28;20726;-54
2022/07/04 07:40:41;;;;;;;1.73;1.53;;;20.90;99.90;;;;;;5053835;28;20223;-55
2022/07/04 07:43:08;;;;;;;2.83;1.80;;;21.30;99.90;;;;;;5051932;28;20248;-54
2022/07/04 07:45:35;;;;;;;2.17;1.70;;;21.60;99.90;;;;;;5053541;28;20284;-55
2022/07/04 07:48:03;;;;;;;3.73;1.50;;;21.90;99.90;;;;;;5052021;28;20198;-54
2022/07/04 07:50:31;;;;;;;1.57;1.47;;;22.10;99.90;;;;;;5052353;28;20268;-54
2022/07/04 07:52:58;;;;;;;1.57;1.37;;;21.60;99.90;;;;;;5051607;28;20226;-54
2022/07/04 07:55:26;;;;;;;1.80;1.70;;;21.40;99.90;;;;;;5048574;28;20209;-54
2022/07/04 07:57:53;;;;;;;1.83;1.60;;;21.10;99.90;;;;;;5050870;28;20300;-54
2022/07/04 08:00:21;;;;;;;5.63;1.97;;;21.00;99.90;;;;;;5041309;28;20240;-54
2022/07/04 08:05:33;;;;;;;1.83;1.80;;;20.90;99.90;;;;;;5055046;28;20696;-54
2022/07/04 08:08:01;;;;;;;3.00;2.13;;;20.80;99.90;;;;;;5052711;28;20251;-54
2022/07/04 08:10:28;;;;;;;3.30;1.90;;;20.80;99.90;;;;;;5052282;28;20730;-55
2022/07/04 08:12:55;;;;;;;1.90;1.80;;;21.10;99.90;;;;;;5050508;28;20205;-54
2022/07/04 08:15:23;;;;;;;2.50;1.43;;;21.10;99.90;;;;;;5051889;28;20206;-54
2022/07/04 08:17:50;;;;;;;1.97;1.87;;;21.10;99.90;;;;;;5052109;28;20732;-54
2022/07/04 08:20:17;;;;;;;4.13;1.70;;;21.10;99.90;;;;;;5051911;28;20798;-54
2022/07/04 08:22:45;;;;;;;1.27;1.27;;;21.20;99.90;;;;;;5051544;28;20625;-54
2022/07/04 08:25:14;;;;;;;2.03;1.93;;;21.30;99.90;;;;;;5052608;28;20218;-54
2022/07/04 08:27:41;;;;;;;1.97;1.40;;;21.30;99.90;;;;;;5052332;28;20676;-54
2022/07/04 08:30:08;;;;;;;1.47;1.37;;;21.30;99.90;;;;;;5056412;28;20676;-54
2022/07/04 08:32:36;;;;;;;1.30;1.30;;;21.40;99.90;;;;;;5051166;28;20202;-54
2022/07/04 08:35:04;;;;;;;1.50;1.40;;;21.40;99.90;;;;;;5052166;28;20289;-54
2022/07/04 08:37:31;;;;;;;1.60;1.50;;;21.50;99.90;;;;;;5051709;28;20232;-55
2022/07/04 08:40:00;;;;;;;1.63;1.60;;;21.60;99.90;;;;;;5070681;28;20225;-54
2022/07/04 08:42:29;;;;;;;2.90;1.60;;;21.70;99.90;;;;;;5069783;28;20637;-54
2022/07/04 08:44:56;;;;;;;1.53;1.20;;;21.80;99.90;;;;;;5070466;28;20201;-54
2022/07/04 08:47:25;;;;;;;1.67;1.57;;;21.90;99.90;;;;;;5061284;28;20190;-54
2022/07/04 08:49:56;;;;;;;1.43;1.43;;;22.10;99.90;;;;;;5052012;28;20217;-55
2022/07/04 08:52:32;;;;;;;3.57;1.47;;;22.00;99.90;;;;;;5051001;28;20197;-54
2022/07/04 09:00:32;;;;;;;1.97;1.50;;;22.40;99.90;;;;;;5047604;28;20232;-55
2022/07/04 09:03:01;;;;;;;2.20;2.10;;;22.50;99.90;;;;;;5052475;28;20648;-55
2022/07/04 09:05:28;;;;;;;1.10;1.10;;;22.80;99.90;;;;;;5059342;28;20201;-55
2022/07/04 09:07:56;;;;;;;2.00;1.50;;;23.10;99.90;;;;;;5048411;28;20198;-55
2022/07/04 09:10:25;;;;;;;2.80;1.40;;;23.20;99.90;;;;;;5050562;28;20214;-55
2022/07/04 09:12:52;;;;;;;1.50;1.40;;;23.30;99.90;;;;;;5050032;28;20233;-55
2022/07/04 09:15:20;;;;;;;2.53;1.33;;;23.60;99.90;;;;;;5047710;28;20206;-55
2022/07/04 09:17:48;;;;;;;2.00;1.30;;;23.50;99.90;;;;;;5051459;28;20214;-55
2022/07/04 09:20:17;;;;;;;1.63;1.53;;;23.60;99.90;;;;;;5051638;28;20781;-55
2022/07/04 09:22:44;;;;;;;2.63;1.80;;;23.60;99.90;;;;;;5049804;28;20259;-55
2022/07/04 09:25:14;;;;;;;4.83;2.03;;;23.50;99.90;;;;;;5043471;28;20306;-55
2022/07/04 09:27:45;;;;;;;1.60;1.50;;;23.60;99.90;;;;;;5051792;28;20615;-55
2022/07/04 09:30:13;;;;;;;2.60;1.87;;;23.80;99.90;;;;;;5050735;28;20221;-55
2022/07/04 09:32:41;;;;;;;1.97;1.63;;;24.00;99.90;;;;;;5049700;28;20210;-55
2022/07/04 09:35:10;;;;;;;2.50;1.23;;;24.10;99.90;;;;;;5050317;28;20237;-55
2022/07/04 09:37:39;;;;;;;1.97;1.00;;;24.10;99.90;;;;;;5050511;28;20228;-55
2022/07/04 09:40:09;;;;;;;1.93;1.73;;;24.10;99.90;;;;;;5051436;28;20263;-55
2022/07/04 09:42:40;;;;;;;1.70;1.60;;;23.80;99.90;;;;;;5049516;28;20668;-55
2022/07/04 09:45:11;;;;;;;2.53;1.53;;;23.80;99.90;;;;;;5051077;28;20198;-55
2022/07/04 09:47:40;;;;;;;1.13;1.13;;;24.00;99.90;;;;;;5051518;28;20679;-55
2022/07/04 09:50:09;;;;;;;2.00;1.20;;;24.10;99.90;;;;;;5049399;28;20275;-55
2022/07/04 09:52:46;;;;;;;1.73;1.00;;;24.40;99.90;;;;;;5048253;28;20236;-56
2022/07/04 09:55:13;;;;;;;1.07;1.07;;;24.70;99.90;;;;;;5049779;28;20202;-55
2022/07/04 09:57:45;;;;;;;1.23;1.20;;;24.70;99.90;;;;;;5057223;28;20694;-56
2022/07/04 10:00:26;;;;;;;2.30;2.20;;;24.50;99.90;;;;;;5050290;28;20316;-55
2022/07/04 10:02:54;;;;;;;1.57;1.00;;;24.70;99.90;;;;;;5048271;28;20204;-55
2022/07/04 10:05:23;;;;;;;1.03;1.03;;;25.10;99.90;;;;;;5049308;28;20206;-55
2022/07/04 10:07:50;;;;;;;1.90;1.10;;;25.30;99.90;;;;;;5050792;28;20194;-55
2022/07/04 10:10:30;;;;;;;1.80;1.30;;;25.60;99.90;;;;;;5049260;28;20226;-56
2022/07/04 10:12:59;;;;;;;1.23;1.20;;;25.80;99.90;;;;;;5049248;28;20212;-55
2022/07/04 10:15:28;;;;;;;2.43;0.87;;;26.10;99.90;;;;;;5050658;28;20267;-55
2022/07/04 10:17:55;;;;;;;1.50;1.40;;;26.40;99.90;;;;;;5050075;28;20253;-55
2022/07/04 10:20:22;;;;;;;1.27;1.20;;;26.50;99.90;;;;;;5047865;28;20222;-56
2022/07/04 10:22:49;;;;;;;1.20;1.10;;;26.80;99.90;;;;;;5049609;28;20214;-56
2022/07/04 10:25:16;;;;;;;1.15;1.08;;;27.20;99.90;;;;;;5048699;28;20198;-55
2022/07/04 10:27:44;;;;;;;1.98;1.25;;;28.10;99.90;;;;;;5047079;28;20194;-56
2022/07/04 10:30:15;;;;;;;1.17;1.08;;;28.50;99.90;;;;;;5048721;28;20305;-56
2022/07/04 10:32:46;;;;;;;1.38;0.90;;;29.20;99.90;;;;;;5046204;28;20290;-56
2022/07/04 10:35:16;;;;;;;1.55;1.15;;;29.30;99.90;;;;;;5042010;28;20240;-56
2022/07/04 10:38:08;;;;;;;1.90;1.25;;;29.30;99.90;;;;;;5051032;28;20217;-56
2022/07/04 10:40:46;;;;;;;2.28;1.17;;;29.60;99.90;;;;;;5042501;28;20304;-56
2022/07/04 10:43:52;;;;;;;1.08;1.08;;;30.10;99.90;;;;;;5054370;28;20228;-57
2022/07/04 10:46:44;;;;;;;0.90;0.63;;;30.60;99.90;;;;;;5047591;28;20284;-56
2022/07/04 10:49:22;;;;;;;0.90;0.90;;;30.30;99.90;;;;;;5054838;28;20297;-56
2022/07/04 10:51:50;;;;;;;1.83;1.42;;;30.20;99.90;;;;;;5053946;28;20664;-56
2022/07/04 10:54:18;;;;;;;0.95;0.95;;;30.00;99.90;;;;;;5052628;28;20194;-58
2022/07/04 10:56:48;;;;;;;1.23;1.13;;;29.90;99.90;;;;;;5056184;28;20217;-58
2022/07/04 10:59:18;;;;;;;1.10;1.10;;;30.00;99.90;;;;;;5051089;28;20252;-57
2022/07/04 11:01:52;;;;;;;0.90;0.90;;;29.70;99.90;;;;;;5046986;28;20240;-55
2022/07/04 11:04:55;;;;;;;1.00;1.00;;;29.70;99.90;;;;;;5051489;28;20263;-57
2022/07/04 11:07:23;;;;;;;3.22;1.00;;;29.50;99.90;;;;;;5008712;28;20213;-55
2022/07/04 11:10:26;;;;;;;2.08;0.80;;;29.10;99.90;;;;;;4991763;28;20223;-57
2022/07/04 11:13:20;;;;;;;2.00;0.90;;;28.90;99.90;;;;;;5033268;28;20201;-57
2022/07/04 11:16:07;;;;;;;0.70;0.68;;;28.80;99.90;;;;;;5053328;28;20205;-57
2022/07/04 11:18:42;;;;;;;1.20;1.20;;;28.80;99.90;;;;;;5053325;28;20662;-55
2022/07/04 11:21:21;;;;;;;1.02;0.90;;;29.10;99.90;;;;;;5051219;28;20232;-55
2022/07/04 11:23:55;;;;;;;1.85;1.10;;;29.20;99.90;;;;;;5057087;28;20197;-57
2022/07/04 11:26:23;;;;;;;0.90;0.90;;;29.10;99.90;;;;;;5053663;28;20213;-57
2022/07/04 11:28:51;;;;;;;1.95;1.02;;;28.90;99.90;;;;;;5049643;28;20198;-57
2022/07/04 11:31:18;;;;;;;2.80;1.27;;;28.50;99.90;;;;;;5055284;28;20229;-57
2022/07/04 11:33:46;;;;;;;0.82;0.82;;;28.00;99.90;;;;;;5052755;28;20202;-57
2022/07/04 11:36:16;;;;;;;1.30;1.15;;;27.70;99.90;;;;;;5053711;28;20194;-57
2022/07/04 11:38:50;;;;;;;1.38;1.30;;;27.80;99.90;;;;;;5053695;28;20229;-55
2022/07/04 11:46:51;;;;;;;3.88;1.40;;;27.90;99.90;;;;;;5053574;28;20262;-55
2022/07/04 11:49:19;;;;;;;2.50;2.35;;;27.60;99.90;;;;;;5053404;28;20213;-56
2022/07/04 11:51:49;;;;;;;5.68;2.33;;;27.40;99.90;;;;;;5051468;28;20240;-55
2022/07/04 11:54:18;;;;;;;2.75;1.33;;;27.30;99.90;;;;;;5053621;28;20209;-57
2022/07/04 11:56:46;;;;;;;1.30;1.20;;;27.40;99.90;;;;;;5053195;28;20204;-54
2022/07/04 11:59:15;;;;;;;1.67;1.67;;;27.60;99.90;;;;;;5053158;28;20230;-57
2022/07/04 12:01:43;;;;;;;1.92;1.90;;;27.40;99.90;;;;;;5050185;28;20202;-57
2022/07/04 12:04:18;;;;;;;2.35;2.13;;;27.20;99.90;;;;;;5046789;28;20200;-56
2022/07/04 12:06:47;;;;;;;1.97;1.80;;;26.70;99.90;;;;;;5050546;28;20197;-57
2022/07/04 12:09:16;;;;;;;2.05;1.95;;;26.70;99.90;;;;;;5052189;28;20209;-55
2022/07/04 12:11:56;;;;;;;1.90;1.80;;;26.50;99.90;;;;;;5051881;28;20285;-55
2022/07/04 12:14:24;;;;;;;2.43;2.33;;;26.20;99.90;;;;;;5049795;28;20733;-54
2022/07/04 12:17:09;;;;;;;2.83;2.63;;;26.10;99.90;;;;;;5052659;28;20197;-54
2022/07/04 12:19:36;;;;;;;3.40;2.13;;;25.90;99.90;;;;;;5053096;28;20299;-54
2022/07/04 12:22:03;;;;;;;3.17;2.63;;;26.00;99.90;;;;;;5052635;28;20258;-55
2022/07/04 12:24:41;;;;;;;3.50;2.00;;;26.30;99.90;;;;;;5052157;28;20202;-57
2022/07/04 12:27:17;;;;;;;2.57;2.03;;;26.60;99.90;;;;;;5052943;28;20189;-57
2022/07/04 12:29:48;;;;;;;2.00;1.90;;;26.80;99.90;;;;;;5052885;28;20279;-55
2022/07/04 12:32:15;;;;;;;3.07;2.70;;;27.00;99.90;;;;;;5051860;28;20194;-54
2022/07/04 12:34:42;;;;;;;2.13;2.03;;;26.80;99.90;;;;;;5052287;28;20299;-54
2022/07/04 12:37:10;;;;;;;2.60;2.40;;;26.30;99.90;;;;;;5047807;28;20251;-54
2022/07/04 12:39:39;;;;;;;2.87;2.20;;;26.00;99.90;;;;;;5066475;28;20228;-56
2022/07/04 12:42:09;;;;;;;2.53;2.37;;;25.80;99.90;;;;;;5070293;28;20201;-56
2022/07/04 12:44:37;;;;;;;3.57;1.73;;;25.80;99.90;;;;;;5068180;28;20205;-53
2022/07/04 12:47:04;;;;;;;3.00;2.87;;;25.90;99.90;;;;;;5052366;28;20197;-54
2022/07/04 12:49:32;;;;;;;1.83;1.73;;;26.00;99.90;;;;;;5052508;28;20222;-56
2022/07/04 12:52:11;;;;;;;1.40;1.40;;;26.20;99.90;;;;;;5051882;28;20660;-56
2022/07/04 12:54:39;;;;;;;1.63;1.53;;;26.50;99.90;;;;;;5047385;28;20611;-56
2022/07/04 12:57:12;;;;;;;1.70;1.60;;;26.70;99.90;;;;;;5059310;28;20198;-56
2022/07/04 12:59:40;;;;;;;1.37;1.37;;;26.80;99.90;;;;;;5050823;28;20221;-56
2022/07/04 13:02:08;;;;;;;2.40;1.58;;;26.70;99.90;;;;;;5074771;22;20279;-50
2022/07/04 13:04:36;;;;;;;2.08;1.45;;;26.60;99.90;;;;;;5050061;28;20198;-50
2022/07/04 13:07:14;;;;;;;2.90;1.83;;;26.40;99.90;;;;;;5055355;28;20255;-50
2022/07/04 13:09:42;;;;;;;1.30;1.10;;;26.20;99.90;;;;;;5054555;28;20579;-51
2022/07/04 13:12:27;;;;;;;1.47;1.30;;;26.10;99.90;;;;;;5050787;28;20220;-50
2022/07/04 13:14:55;;;;;;;1.20;1.20;;;26.10;99.90;;;;;;5058836;28;20194;-51
2022/07/04 13:17:23;;;;;;;1.40;1.30;;;26.00;99.90;;;;;;5051766;28;20222;-51
2022/07/04 13:19:52;;;;;;;1.30;1.30;;;26.10;99.90;;;;;;5051177;28;20229;-50